Time;durP1;ratioP1;P1;durP2;ratioP2;P2;SDS_P1;SDS_P2;PMS_P1;PMS_P2;Temp;Humidity;BMP_temperature;BMP_pressure;BME280_temperature;BME280_humidity;BME280_pressure;Samples;Min_cycle;Max_cycle;Signal;HPM_P1;HPM_P2
2022/04/08 00:02:03;;;;;;;0.00;0.00;;;;;;;7.20;54.71;99544.09;7353929;19;20023;-64
2022/04/08 00:04:30;;;;;;;0.00;0.00;;;;;;;7.21;55.09;99541.44;7358834;19;20035;-64
2022/04/08 00:06:56;;;;;;;0.00;0.00;;;;;;;7.16;54.93;99534.66;7352780;19;20522;-63
2022/04/08 00:09:22;;;;;;;0.00;0.00;;;;;;;7.05;55.32;99518.53;7358624;19;20730;-63
2022/04/08 00:11:47;;;;;;;0.00;0.00;;;;;;;7.11;54.85;99528.75;7347208;19;21015;-64
2022/04/08 00:14:13;;;;;;;0.00;0.00;;;;;;;7.08;55.31;99528.81;7358634;19;20007;-64
2022/04/08 00:16:38;;;;;;;0.00;0.00;;;;;;;6.90;55.04;99505.09;7354290;19;20010;-63
2022/04/08 00:19:04;;;;;;;0.00;0.00;;;;;;;7.00;55.37;99526.44;7358356;19;20010;-63
2022/04/08 00:21:29;;;;;;;0.00;0.00;;;;;;;6.96;55.48;99535.19;7347333;19;20007;-63
2022/04/08 00:23:55;;;;;;;0.08;0.08;;;;;;;6.95;55.79;99534.34;7358868;19;20011;-63
2022/04/08 00:26:20;;;;;;;0.00;0.00;;;;;;;6.92;55.74;99529.22;7351251;19;20027;-63
2022/04/08 00:28:46;;;;;;;0.10;0.10;;;;;;;6.90;55.78;99528.44;7358666;19;20011;-63
2022/04/08 00:31:11;;;;;;;0.00;0.00;;;;;;;6.89;55.23;99518.06;7357500;19;20482;-63
2022/04/08 00:33:37;;;;;;;0.00;0.00;;;;;;;6.86;55.93;99518.19;7356004;19;20011;-63
2022/04/08 00:36:03;;;;;;;0.00;0.00;;;;;;;6.85;55.83;99519.91;7349294;19;20748;-64
2022/04/08 00:38:28;;;;;;;0.00;0.00;;;;;;;6.82;55.70;99524.34;7347606;19;20025;-62
2022/04/08 00:40:54;;;;;;;0.00;0.00;;;;;;;6.76;55.95;99518.41;7357665;19;20010;-63
2022/04/08 00:43:19;;;;;;;0.10;0.10;;;;;;;6.75;55.65;99531.44;7359655;19;20010;-63
2022/04/08 00:45:46;;;;;;;0.00;0.00;;;;;;;6.71;55.88;99528.06;7354438;19;20011;-63
2022/04/08 00:48:12;;;;;;;0.00;0.00;;;;;;;6.67;55.86;99533.34;7355471;19;20015;-63
2022/04/08 00:50:39;;;;;;;0.00;0.00;;;;;;;6.67;56.58;99530.75;7357847;19;20596;-60
2022/04/08 00:53:05;;;;;;;0.10;0.10;;;;;;;6.63;55.97;99532.56;7352432;19;20765;-63
2022/04/08 00:55:31;;;;;;;0.10;0.10;;;;;;;6.64;56.33;99541.22;7355502;19;20114;-63
2022/04/08 00:58:00;;;;;;;0.00;0.00;;;;;;;6.49;55.77;99514.78;7357020;19;20102;-63
2022/04/08 01:00:26;;;;;;;0.00;0.00;;;;;;;6.59;56.63;99530.97;7355720;19;20010;-63
2022/04/08 01:02:51;;;;;;;0.00;0.00;;;;;;;6.55;56.14;99531.94;7358240;19;20025;-63
2022/04/08 01:05:17;;;;;;;0.00;0.00;;;;;;;6.53;55.57;99535.44;7356253;19;20814;-62
2022/04/08 01:07:42;;;;;;;0.00;0.00;;;;;;;6.48;55.84;99532.97;7359037;19;20014;-63
2022/04/08 01:10:08;;;;;;;0.00;0.00;;;;;;;6.38;55.99;99532.34;7355075;19;20011;-61
2022/04/08 01:12:33;;;;;;;0.00;0.00;;;;;;;6.39;56.62;99544.44;7357119;19;20014;-64
2022/04/08 01:14:59;;;;;;;0.00;0.00;;;;;;;6.38;56.47;99550.47;7359566;19;20037;-62
2022/04/08 01:17:26;;;;;;;0.00;0.00;;;;;;;6.36;56.69;99544.50;7358324;19;20011;-63
2022/04/08 01:19:51;;;;;;;0.00;0.00;;;;;;;6.33;56.52;99544.56;7355846;19;20014;-64
2022/04/08 01:22:20;;;;;;;0.10;0.10;;;;;;;6.31;56.54;99548.09;7352787;19;20530;-63
2022/04/08 01:24:48;;;;;;;0.00;0.00;;;;;;;6.27;56.62;99539.53;7342316;19;20050;-62
2022/04/08 01:27:16;;;;;;;0.00;0.00;;;;;;;6.23;56.73;99545.66;7354830;19;20409;-63
2022/04/08 01:29:42;;;;;;;0.00;0.00;;;;;;;6.21;56.81;99544.84;7358524;19;20002;-63
2022/04/08 01:32:07;;;;;;;0.00;0.00;;;;;;;6.09;56.66;99534.78;7350997;19;20014;-63
2022/04/08 01:34:33;;;;;;;0.00;0.00;;;;;;;6.10;56.70;99544.25;7358026;19;20046;-63
2022/04/08 01:36:58;;;;;;;0.00;0.00;;;;;;;6.11;56.75;99556.31;7357644;19;20011;-64
2022/04/08 01:39:23;;;;;;;0.00;0.00;;;;;;;6.10;56.95;99554.63;7355561;19;20026;-63
2022/04/08 01:41:49;;;;;;;0.00;0.00;;;;;;;6.07;57.06;99542.56;7345052;19;20017;-63
2022/04/08 01:44:15;;;;;;;0.10;0.10;;;;;;;5.95;57.09;99511.78;7357763;19;20014;-62
2022/04/08 01:46:40;;;;;;;0.00;0.00;;;;;;;6.01;57.18;99528.91;7357804;19;20011;-64
2022/04/08 01:49:05;;;;;;;0.00;0.00;;;;;;;5.97;56.72;99530.72;7353701;19;20007;-62
2022/04/08 01:51:31;;;;;;;0.10;0.10;;;;;;;5.94;57.60;99531.66;7349077;19;20098;-63
2022/04/08 01:53:56;;;;;;;0.00;0.00;;;;;;;5.92;57.53;99528.22;7357735;19;20029;-63
2022/04/08 01:56:22;;;;;;;0.00;0.00;;;;;;;5.91;57.33;99536.00;7358321;19;20085;-63
2022/04/08 01:58:47;;;;;;;0.00;0.00;;;;;;;5.87;57.68;99530.03;7337905;19;20006;-63
2022/04/08 02:01:12;;;;;;;0.00;0.00;;;;;;;5.85;57.92;99526.63;7353982;19;20107;-64
2022/04/08 02:03:38;;;;;;;0.00;0.00;;;;;;;5.84;57.20;99524.94;7353015;19;20003;-63
2022/04/08 02:06:03;;;;;;;0.00;0.00;;;;;;;5.83;57.16;99527.53;7354443;19;20711;-60
2022/04/08 02:08:29;;;;;;;0.10;0.10;;;;;;;5.79;57.38;99519.00;7354136;19;20010;-63
2022/04/08 02:10:54;;;;;;;0.10;0.10;;;;;;;5.75;57.31;99513.94;7346081;19;20003;-64
2022/04/08 02:13:20;;;;;;;0.00;0.00;;;;;;;5.66;57.68;99502.03;7351786;19;20035;-63
2022/04/08 02:15:46;;;;;;;0.10;0.10;;;;;;;5.72;57.63;99507.06;7354777;19;21768;-63
2022/04/08 02:18:12;;;;;;;0.00;0.00;;;;;;;5.69;57.42;99509.75;7356222;19;20010;-64
2022/04/08 02:20:38;;;;;;;0.08;0.08;;;;;;;5.67;57.84;99511.50;7343197;19;20003;-63
2022/04/08 02:23:04;;;;;;;0.00;0.00;;;;;;;5.02;58.08;99423.13;7354958;19;20014;-63
2022/04/08 02:25:30;;;;;;;0.08;0.08;;;;;;;5.62;57.91;99513.31;7354513;19;20039;-63
2022/04/08 02:27:55;;;;;;;0.10;0.10;;;;;;;5.50;58.10;99500.66;7350562;19;20007;-63
2022/04/08 02:30:21;;;;;;;0.00;0.00;;;;;;;5.58;57.73;99520.34;7351172;19;20102;-64
2022/04/08 02:32:47;;;;;;;0.00;0.00;;;;;;;5.55;58.29;99506.59;7351885;19;20744;-63
2022/04/08 02:35:12;;;;;;;0.00;0.00;;;;;;;5.54;58.33;99510.06;7354361;19;20078;-64
2022/04/08 02:37:38;;;;;;;0.10;0.10;;;;;;;5.42;58.41;99496.50;7346835;19;20010;-63
2022/04/08 02:40:05;;;;;;;0.00;0.00;;;;;;;5.49;58.03;99506.72;7356383;19;20976;-63
2022/04/08 02:42:31;;;;;;;0.05;0.05;;;;;;;5.45;57.99;99511.94;7341980;19;20010;-63
2022/04/08 02:45:00;;;;;;;0.00;0.00;;;;;;;5.35;58.42;99489.72;7361148;19;20786;-64
2022/04/08 02:47:25;;;;;;;0.00;0.00;;;;;;;5.39;58.30;99506.91;7359268;19;20482;-64
2022/04/08 02:49:51;;;;;;;0.10;0.10;;;;;;;5.37;58.51;99519.03;7355950;19;20006;-64
2022/04/08 02:52:16;;;;;;;0.00;0.00;;;;;;;5.35;58.56;99525.97;7358571;19;20002;-65
2022/04/08 02:54:41;;;;;;;0.10;0.10;;;;;;;5.27;58.47;99522.72;7354103;19;20114;-63
2022/04/08 02:57:07;;;;;;;0.00;0.00;;;;;;;5.32;58.35;99535.53;7358789;19;20018;-64
2022/04/08 02:59:32;;;;;;;0.00;0.00;;;;;;;5.30;58.16;99532.97;7351688;19;20544;-64
2022/04/08 03:01:58;;;;;;;0.10;0.10;;;;;;;5.21;58.77;99517.63;7348474;19;20048;-64
2022/04/08 03:04:25;;;;;;;0.00;0.00;;;;;;;5.25;58.54;99521.88;7353192;19;20117;-64
2022/04/08 03:06:51;;;;;;;0.00;0.00;;;;;;;5.23;58.29;99526.22;7351468;19;20354;-64
2022/04/08 03:09:16;;;;;;;0.00;0.00;;;;;;;5.14;58.25;99516.91;7361447;19;20481;-64
2022/04/08 03:11:42;;;;;;;0.00;0.00;;;;;;;5.18;58.28;99517.72;7350625;19;20015;-64
2022/04/08 03:14:07;;;;;;;0.00;0.00;;;;;;;5.16;58.53;99519.44;7364181;19;20027;-64
2022/04/08 03:16:33;;;;;;;0.00;0.00;;;;;;;5.13;58.50;99512.63;7355099;19;20018;-64
2022/04/08 03:18:58;;;;;;;0.10;0.10;;;;;;;5.12;58.76;99517.81;7346566;19;20007;-63
2022/04/08 03:21:24;;;;;;;0.00;0.00;;;;;;;5.08;58.93;99518.78;7355764;19;20015;-64
2022/04/08 03:23:49;;;;;;;0.00;0.00;;;;;;;5.08;58.59;99521.34;7361534;19;20002;-64
2022/04/08 03:26:15;;;;;;;0.00;0.00;;;;;;;5.05;58.97;99524.84;7361604;19;20478;-64
2022/04/08 03:28:42;;;;;;;0.00;0.00;;;;;;;5.03;58.94;99518.00;7366503;19;20014;-64
2022/04/08 03:31:08;;;;;;;0.00;0.00;;;;;;;5.00;58.88;99518.06;7362401;19;20010;-64
2022/04/08 03:33:34;;;;;;;0.00;0.00;;;;;;;4.97;58.73;99521.56;7363524;19;20029;-65
2022/04/08 03:36:00;;;;;;;0.00;0.00;;;;;;;4.92;59.16;99513.88;7352467;19;20006;-64
2022/04/08 03:38:25;;;;;;;0.00;0.00;;;;;;;4.93;59.34;99506.97;7366082;19;20055;-64
2022/04/08 03:40:50;;;;;;;0.00;0.00;;;;;;;4.91;59.24;99501.81;7362015;19;20630;-65
2022/04/08 03:43:16;;;;;;;0.00;0.00;;;;;;;4.89;58.85;99501.00;7346866;19;20011;-64
2022/04/08 03:45:41;;;;;;;0.00;0.00;;;;;;;4.86;58.95;99498.47;7358694;19;20698;-64
2022/04/08 03:48:07;;;;;;;0.00;0.00;;;;;;;4.87;59.36;99497.59;7360861;19;20050;-63
2022/04/08 03:50:33;;;;;;;0.03;0.03;;;;;;;4.85;59.44;99504.50;7360861;19;20562;-64
2022/04/08 03:52:58;;;;;;;0.00;0.00;;;;;;;4.83;59.20;99501.13;7363559;19;20015;-65
2022/04/08 03:55:23;;;;;;;0.00;0.00;;;;;;;4.80;58.73;99496.00;7356938;19;20031;-64
2022/04/08 03:57:49;;;;;;;0.00;0.00;;;;;;;4.77;59.24;99497.81;7363099;19;20031;-63
2022/04/08 04:00:15;;;;;;;0.10;0.10;;;;;;;4.73;59.30;99498.72;7361322;19;20385;-64
2022/04/08 04:02:40;;;;;;;0.10;0.10;;;;;;;4.71;59.23;99492.72;7357250;19;20011;-64
2022/04/08 04:05:06;;;;;;;0.10;0.10;;;;;;;4.67;59.41;99494.53;7355369;19;20085;-64
2022/04/08 04:07:35;;;;;;;0.10;0.10;;;;;;;4.65;58.94;99496.28;7362581;19;20027;-64
2022/04/08 04:10:00;;;;;;;0.00;0.00;;;;;;;4.61;59.40;99499.78;7354051;19;20010;-64
2022/04/08 04:12:29;;;;;;;0.00;0.00;;;;;;;4.54;59.54;99490.44;7360549;19;20010;-64
2022/04/08 04:14:55;;;;;;;0.00;0.00;;;;;;;4.56;59.67;99493.84;7354204;19;20041;-64
2022/04/08 04:17:21;;;;;;;0.08;0.08;;;;;;;4.55;59.40;99499.91;7353709;19;20368;-64
2022/04/08 04:19:47;;;;;;;0.00;0.00;;;;;;;4.50;59.61;99491.38;7359694;19;20007;-64
2022/04/08 04:22:12;;;;;;;0.00;0.00;;;;;;;4.50;59.44;99501.72;7357779;19;20470;-65
2022/04/08 04:24:38;;;;;;;0.00;0.00;;;;;;;4.48;59.73;99498.31;7359851;19;20014;-63
2022/04/08 04:27:04;;;;;;;0.00;0.00;;;;;;;4.46;59.69;99494.88;7352891;19;20838;-64
2022/04/08 04:29:29;;;;;;;0.00;0.00;;;;;;;4.45;59.62;99503.53;7361240;19;20744;-64
2022/04/08 04:31:56;;;;;;;0.00;0.00;;;;;;;4.43;59.89;99501.81;7358493;19;20418;-64
2022/04/08 04:34:24;;;;;;;0.00;0.00;;;;;;;4.42;59.64;99500.13;7357419;19;20031;-65
2022/04/08 04:36:49;;;;;;;0.00;0.00;;;;;;;4.39;60.03;99499.31;7360900;19;20014;-65
2022/04/08 04:39:15;;;;;;;0.10;0.10;;;;;;;4.37;59.98;99499.34;7353329;19;20006;-65
2022/04/08 04:41:40;;;;;;;0.00;0.00;;;;;;;4.36;59.85;99504.56;7357814;19;20082;-64
2022/04/08 04:44:06;;;;;;;0.00;0.00;;;;;;;4.34;60.03;99501.13;7353935;19;20014;-64
2022/04/08 04:46:32;;;;;;;0.10;0.10;;;;;;;4.32;59.96;99500.31;7360895;19;20010;-64
2022/04/08 04:48:57;;;;;;;0.00;0.00;;;;;;;4.24;59.95;99487.50;7358801;19;20002;-63
2022/04/08 04:51:23;;;;;;;0.00;0.00;;;;;;;4.28;60.07;99501.22;7349103;19;20019;-65
2022/04/08 04:53:48;;;;;;;0.00;0.00;;;;;;;4.25;60.12;99499.53;7360607;19;20010;-64
2022/04/08 04:56:14;;;;;;;0.00;0.00;;;;;;;4.21;59.98;99494.44;7354773;19;20012;-64
2022/04/08 04:58:39;;;;;;;0.10;0.10;;;;;;;4.20;59.97;99496.16;7359840;19;20030;-63
2022/04/08 05:01:04;;;;;;;0.00;0.00;;;;;;;4.10;60.37;99486.88;7357784;19;20389;-64
2022/04/08 05:03:30;;;;;;;0.00;0.00;;;;;;;4.19;60.13;99502.22;7354792;19;20021;-65
2022/04/08 05:05:55;;;;;;;0.00;0.00;;;;;;;4.19;60.42;99502.22;7359787;19;20014;-64
2022/04/08 05:08:21;;;;;;;0.10;0.10;;;;;;;4.18;60.33;99505.69;7358199;19;20006;-64
2022/04/08 05:10:47;;;;;;;0.00;0.00;;;;;;;4.13;60.53;99508.34;7363298;19;20102;-65
2022/04/08 05:13:13;;;;;;;0.00;0.00;;;;;;;4.08;60.47;99498.97;7344918;19;20046;-64
2022/04/08 05:15:42;;;;;;;0.00;0.00;;;;;;;4.12;60.31;99506.66;7362945;19;20331;-64
2022/04/08 05:18:11;;;;;;;0.00;0.00;;;;;;;4.13;60.52;99510.06;7360028;19;20006;-64
2022/04/08 05:20:36;;;;;;;0.00;0.00;;;;;;;4.11;60.26;99514.44;7351841;19;20017;-64
2022/04/08 05:23:01;;;;;;;0.03;0.03;;;;;;;4.07;60.42;99515.34;7361867;19;20015;-64
2022/04/08 05:25:27;;;;;;;0.00;0.00;;;;;;;4.07;60.50;99523.94;7356932;19;20529;-65
2022/04/08 05:27:53;;;;;;;0.10;0.10;;;;;;;4.04;60.68;99528.28;7354618;19;20012;-65
2022/04/08 05:30:19;;;;;;;0.10;0.10;;;;;;;4.04;60.47;99523.13;7357244;19;20051;-65
2022/04/08 05:32:48;;;;;;;0.00;0.00;;;;;;;4.02;60.56;99519.72;7351745;19;20018;-64
2022/04/08 05:35:15;;;;;;;0.10;0.10;;;;;;;4.01;60.50;99523.19;7359296;19;20035;-64
2022/04/08 05:37:42;;;;;;;0.00;0.00;;;;;;;3.99;60.54;99524.94;7357774;19;20037;-64
2022/04/08 05:40:10;;;;;;;0.00;0.00;;;;;;;3.94;60.56;99522.41;7360386;19;20015;-63
2022/04/08 05:42:36;;;;;;;0.00;0.00;;;;;;;3.95;61.00;99531.84;7354500;19;20021;-65
2022/04/08 05:45:01;;;;;;;0.00;0.00;;;;;;;3.95;60.79;99533.59;7361895;19;20014;-64
2022/04/08 05:47:28;;;;;;;0.00;0.00;;;;;;;3.94;60.89;99529.31;7357313;19;20018;-65
2022/04/08 05:49:59;;;;;;;0.05;0.05;;;;;;;3.94;60.52;99529.31;7360066;19;20103;-61
2022/04/08 05:52:24;;;;;;;0.00;0.00;;;;;;;3.91;60.89;99530.22;7358071;19;20034;-59
2022/04/08 05:54:50;;;;;;;0.00;0.00;;;;;;;3.90;61.14;99533.66;7354029;19;20010;-64
2022/04/08 05:57:17;;;;;;;0.00;0.00;;;;;;;3.81;60.85;99521.75;7360059;19;20487;-64
2022/04/08 05:59:42;;;;;;;0.00;0.00;;;;;;;3.87;60.97;99526.81;7356593;19;20026;-64
2022/04/08 06:02:08;;;;;;;0.00;0.00;;;;;;;3.87;60.84;99526.81;7361071;19;20010;-64
2022/04/08 06:04:33;;;;;;;0.00;0.00;;;;;;;3.83;60.97;99525.16;7359104;19;20051;-65
2022/04/08 06:06:59;;;;;;;0.00;0.00;;;;;;;3.86;61.22;99535.44;7349010;19;20046;-64
2022/04/08 06:09:24;;;;;;;0.03;0.03;;;;;;;3.84;61.51;99529.44;7357383;19;20670;-64
2022/04/08 06:11:49;;;;;;;0.00;0.00;;;;;;;3.84;61.33;99520.84;7356339;19;20014;-64
2022/04/08 06:14:15;;;;;;;0.00;0.00;;;;;;;3.84;61.20;99532.00;7364509;19;20997;-64
2022/04/08 06:16:42;;;;;;;0.00;0.00;;;;;;;3.85;61.38;99528.59;7362249;19;20475;-64
2022/04/08 06:19:08;;;;;;;0.00;0.00;;;;;;;3.83;61.35;99524.31;7364805;19;20047;-64
2022/04/08 06:21:33;;;;;;;0.00;0.00;;;;;;;3.85;61.63;99526.00;7364758;19;20014;-65
2022/04/08 06:23:58;;;;;;;0.00;0.00;;;;;;;3.86;61.58;99527.69;7364648;19;20039;-65
2022/04/08 06:26:24;;;;;;;0.10;0.10;;;;;;;3.85;61.37;99528.59;7366239;19;20943;-65
2022/04/08 06:28:49;;;;;;;0.10;0.10;;;;;;;3.86;61.18;99532.88;7359013;19;20030;-64
2022/04/08 06:31:14;;;;;;;0.10;0.10;;;;;;;3.88;61.10;99535.41;7364179;19;20014;-64
2022/04/08 06:33:41;;;;;;;0.00;0.00;;;;;;;3.87;61.21;99531.97;7361998;19;20050;-65
2022/04/08 06:36:07;;;;;;;0.00;0.00;;;;;;;3.88;61.51;99530.25;7353433;19;20025;-62
2022/04/08 06:38:32;;;;;;;0.00;0.00;;;;;;;3.89;61.18;99535.38;7362624;19;20015;-64
2022/04/08 06:40:58;;;;;;;0.00;0.00;;;;;;;3.91;60.91;99532.81;7355289;19;20372;-64
2022/04/08 06:43:23;;;;;;;0.00;0.00;;;;;;;3.94;61.47;99537.91;7361615;19;20002;-64
2022/04/08 06:45:49;;;;;;;0.05;0.05;;;;;;;3.95;61.58;99533.59;7361263;19;20082;-65
2022/04/08 06:48:15;;;;;;;0.00;0.00;;;;;;;3.86;61.81;99516.53;7361882;19;20023;-64
2022/04/08 06:50:40;;;;;;;0.00;0.00;;;;;;;4.01;62.14;99546.44;7362353;19;20118;-64
2022/04/08 06:53:06;;;;;;;0.00;0.00;;;;;;;4.03;62.10;99552.44;7353313;19;20039;-64
2022/04/08 06:55:32;;;;;;;0.00;0.00;;;;;;;4.06;62.58;99547.22;7363733;19;20022;-64
2022/04/08 06:57:59;;;;;;;0.10;0.10;;;;;;;4.10;62.49;99548.88;7361652;19;20014;-64
2022/04/08 07:00:25;;;;;;;0.00;0.00;;;;;;;4.14;61.93;99550.53;7357345;19;20017;-64
2022/04/08 07:02:50;;;;;;;0.00;0.00;;;;;;;4.15;62.46;99542.75;7365019;19;20010;-64
2022/04/08 07:05:16;;;;;;;0.00;0.00;;;;;;;4.19;62.39;99538.41;7357365;19;20011;-64
2022/04/08 07:07:45;;;;;;;0.00;0.00;;;;;;;4.20;62.56;99534.94;7357515;19;20024;-64
2022/04/08 07:10:11;;;;;;;0.00;0.00;;;;;;;4.30;62.47;99546.81;7342013;19;20041;-64
2022/04/08 07:12:37;;;;;;;0.05;0.05;;;;;;;4.33;62.56;99549.38;7360902;19;20010;-64
2022/04/08 07:15:04;;;;;;;0.00;0.00;;;;;;;4.44;62.29;99562.13;7357831;19;20037;-64
2022/04/08 07:17:31;;;;;;;0.00;0.00;;;;;;;4.49;62.39;99562.06;7357016;19;20014;-65
2022/04/08 07:19:57;;;;;;;0.08;0.08;;;;;;;4.54;62.21;99565.41;7358595;19;20737;-64
2022/04/08 07:22:23;;;;;;;0.00;0.00;;;;;;;4.61;62.58;99567.00;7361903;19;21348;-63
2022/04/08 07:24:50;;;;;;;0.10;0.10;;;;;;;4.46;62.95;99531.06;7359768;19;21827;-65
2022/04/08 07:27:17;;;;;;;0.10;0.10;;;;;;;4.73;62.84;99571.13;7360054;19;20037;-64
2022/04/08 07:29:42;;;;;;;0.00;0.00;;;;;;;4.77;62.97;99572.81;7353214;19;20014;-64
2022/04/08 07:32:08;;;;;;;0.10;0.10;;;;;;;4.84;62.81;99575.25;7358384;19;20010;-64
2022/04/08 07:34:35;;;;;;;0.00;0.00;;;;;;;4.91;62.82;99579.41;7357784;19;20611;-65
2022/04/08 07:37:01;;;;;;;0.10;0.10;;;;;;;4.98;62.42;99571.56;7357240;19;20011;-63
2022/04/08 07:39:27;;;;;;;0.00;0.00;;;;;;;5.06;62.82;99574.84;7356422;19;20019;-64
2022/04/08 07:41:52;;;;;;;0.00;0.00;;;;;;;5.12;62.76;99585.06;7359320;19;20070;-64
2022/04/08 07:44:17;;;;;;;0.00;0.00;;;;;;;5.10;62.40;99563.56;7357676;19;20666;-64
2022/04/08 07:46:43;;;;;;;0.10;0.10;;;;;;;5.25;62.24;99581.41;7354950;19;20013;-65
2022/04/08 07:49:08;;;;;;;0.10;0.10;;;;;;;5.32;62.92;99577.81;7363435;19;20585;-64
2022/04/08 07:51:33;;;;;;;0.10;0.10;;;;;;;5.39;62.73;99589.75;7355175;19;20107;-64
2022/04/08 07:53:59;;;;;;;0.00;0.00;;;;;;;5.39;62.96;99576.81;7353997;19;22534;-64
2022/04/08 07:56:24;;;;;;;0.00;0.00;;;;;;;5.54;62.61;99591.19;7351982;19;20029;-65
2022/04/08 07:58:50;;;;;;;0.00;0.00;;;;;;;5.63;62.15;99593.59;7356061;19;20210;-64
2022/04/08 08:01:15;;;;;;;0.00;0.00;;;;;;;5.72;61.74;99595.13;7359596;19;20022;-65
2022/04/08 08:03:42;;;;;;;0.00;0.00;;;;;;;5.80;62.08;99592.41;7357798;19;20014;-64
2022/04/08 08:06:07;;;;;;;0.05;0.05;;;;;;;5.86;61.85;99600.88;7359756;19;20127;-64
2022/04/08 08:08:33;;;;;;;0.00;0.00;;;;;;;5.96;62.25;99596.38;7341181;19;20010;-64
2022/04/08 08:10:58;;;;;;;0.00;0.00;;;;;;;5.99;62.20;99598.94;7356371;19;20033;-63
2022/04/08 08:13:24;;;;;;;0.00;0.00;;;;;;;6.12;61.50;99604.69;7358871;19;20031;-64
2022/04/08 08:15:49;;;;;;;0.10;0.10;;;;;;;6.13;62.12;99593.41;7352633;19;20086;-63
2022/04/08 08:18:14;;;;;;;0.00;0.00;;;;;;;6.20;62.27;99595.00;7355337;19;20494;-64
2022/04/08 08:20:40;;;;;;;0.00;0.00;;;;;;;6.34;62.17;99612.84;7356261;19;20010;-64
2022/04/08 08:23:08;;;;;;;0.10;0.10;;;;;;;6.32;61.51;99605.06;7358511;19;20034;-64
2022/04/08 08:25:34;;;;;;;0.00;0.00;;;;;;;6.50;61.38;99619.38;7361210;19;20017;-64
2022/04/08 08:28:03;;;;;;;0.00;0.00;;;;;;;6.59;61.00;99613.97;7356492;19;20018;-65
2022/04/08 08:30:30;;;;;;;0.00;0.00;;;;;;;6.65;61.01;99624.19;7361007;19;20007;-64
2022/04/08 08:32:57;;;;;;;0.00;0.00;;;;;;;6.73;61.10;99626.59;7356514;19;20019;-63
2022/04/08 08:35:25;;;;;;;0.08;0.08;;;;;;;6.83;61.23;99628.06;7361918;19;20002;-64
2022/04/08 08:37:50;;;;;;;0.00;0.00;;;;;;;6.96;61.56;99626.88;7358710;19;20475;-61
2022/04/08 08:40:17;;;;;;;0.00;0.00;;;;;;;7.15;61.47;99629.03;7354301;19;20022;-64
2022/04/08 08:42:44;;;;;;;0.00;0.00;;;;;;;7.39;61.11;99637.91;7357201;19;20017;-65
2022/04/08 08:45:11;;;;;;;0.00;0.00;;;;;;;7.65;60.64;99639.78;7357817;19;20469;-64
2022/04/08 08:47:37;;;;;;;0.00;0.00;;;;;;;7.79;60.12;99622.06;7352782;19;20540;-64
2022/04/08 08:50:04;;;;;;;0.00;0.00;;;;;;;8.21;59.45;99632.09;7353942;19;20002;-64
2022/04/08 08:52:31;;;;;;;0.00;0.00;;;;;;;8.39;59.24;99623.78;7357160;19;20420;-65
2022/04/08 08:54:57;;;;;;;0.00;0.00;;;;;;;8.72;58.83;99626.22;7358277;19;20046;-63
2022/04/08 08:57:23;;;;;;;0.00;0.00;;;;;;;8.94;58.88;99619.41;7360839;19;20046;-65
2022/04/08 08:59:52;;;;;;;0.00;0.00;;;;;;;9.25;57.95;99626.16;7357106;19;20577;-64
2022/04/08 09:02:20;;;;;;;0.00;0.00;;;;;;;9.68;57.31;99653.31;7357233;19;20809;-65
2022/04/08 09:04:46;;;;;;;0.00;0.00;;;;;;;9.89;57.22;99644.75;7351829;19;20055;-65
2022/04/08 09:07:25;;;;;;;0.00;0.00;;;;;;;10.30;57.42;99644.97;7358042;19;20006;-64
2022/04/08 09:09:52;;;;;;;0.00;0.00;;;;;;;10.51;56.04;99638.91;7356633;19;20679;-63
2022/04/08 09:12:19;;;;;;;0.00;0.00;;;;;;;10.79;55.38;99643.88;7357511;19;20863;-64
2022/04/08 09:14:56;;;;;;;0.00;0.00;;;;;;;11.08;55.22;99649.66;7355577;19;20474;-64
2022/04/08 09:17:23;;;;;;;0.10;0.10;;;;;;;11.29;54.31;99647.91;7360161;19;20018;-65
2022/04/08 09:19:54;;;;;;;0.00;0.00;;;;;;;11.67;54.49;99665.44;7349649;19;20122;-65
2022/04/08 09:22:21;;;;;;;0.00;0.00;;;;;;;11.95;53.45;99672.06;7354065;19;20747;-65
2022/04/08 09:24:47;;;;;;;0.00;0.00;;;;;;;12.20;52.62;99669.19;7355213;19;20014;-63
2022/04/08 09:27:13;;;;;;;0.00;0.00;;;;;;;12.57;52.06;99681.44;7346746;19;20006;-65
2022/04/08 09:29:43;;;;;;;0.00;0.00;;;;;;;12.85;52.33;99674.88;7355920;19;20738;-63
2022/04/08 09:32:13;;;;;;;0.00;0.00;;;;;;;13.06;52.30;99686.94;7352291;19;20007;-64
2022/04/08 09:34:42;;;;;;;0.00;0.00;;;;;;;13.03;52.03;99626.81;7358898;19;20010;-64
2022/04/08 09:37:12;;;;;;;0.00;0.00;;;;;;;13.78;51.50;99693.81;7356036;19;20010;-64
2022/04/08 09:39:56;;;;;;;0.00;0.00;;;;;;;14.14;52.00;99704.19;7359799;19;20018;-64
2022/04/08 09:42:23;;;;;;;0.00;0.00;;;;;;;14.12;48.99;99692.03;7355160;19;20014;-64
2022/04/08 09:44:49;;;;;;;0.00;0.00;;;;;;;14.21;48.66;99716.03;7357749;19;20047;-63
2022/04/08 09:47:14;;;;;;;0.10;0.10;;;;;;;14.25;48.65;99703.59;7355289;19;20503;-64
2022/04/08 09:49:41;;;;;;;0.00;0.00;;;;;;;14.45;48.11;99715.66;7352672;19;20030;-63
2022/04/08 09:52:07;;;;;;;0.00;0.00;;;;;;;14.70;48.16;99708.16;7357873;19;20550;-62
2022/04/08 09:54:34;;;;;;;0.03;0.03;;;;;;;14.99;47.84;99718.78;7335501;19;20030;-63
2022/04/08 09:57:01;;;;;;;0.00;0.00;;;;;;;15.19;46.38;99707.16;7358334;19;20011;-64
2022/04/08 09:59:31;;;;;;;0.00;0.00;;;;;;;15.53;47.66;99721.81;7351791;19;20108;-64
2022/04/08 10:01:58;;;;;;;0.00;0.00;;;;;;;15.65;45.60;99713.22;7356958;19;20026;-64
2022/04/08 10:04:24;;;;;;;0.00;0.00;;;;;;;16.01;45.51;99723.31;7359320;19;20351;-64
2022/04/08 10:06:50;;;;;;;0.00;0.00;;;;;;;16.31;45.17;99723.22;7350200;19;20070;-64
2022/04/08 10:09:19;;;;;;;0.10;0.10;;;;;;;16.75;44.21;99727.53;7358748;19;20002;-65
2022/04/08 10:11:50;;;;;;;0.00;0.00;;;;;;;17.09;42.92;99730.66;7356569;19;20003;-65
2022/04/08 10:14:30;;;;;;;0.00;0.00;;;;;;;17.36;41.74;99742.03;7348664;19;20014;-65
2022/04/08 10:16:57;;;;;;;0.00;0.00;;;;;;;17.45;40.92;99718.63;7358299;19;20010;-64
2022/04/08 10:19:23;;;;;;;0.00;0.00;;;;;;;17.59;40.63;99731.75;7354304;19;20368;-64
2022/04/08 10:21:55;;;;;;;0.03;0.03;;;;;;;17.79;41.15;99747.13;7356964;19;20010;-64
2022/04/08 10:24:23;;;;;;;0.00;0.00;;;;;;;17.83;40.54;99748.59;7348287;19;20009;-64
2022/04/08 10:27:05;;;;;;;0.00;0.00;;;;;;;17.98;41.96;99745.84;7357135;19;20101;-65
2022/04/08 10:29:34;;;;;;;0.05;0.05;;;;;;;18.06;40.08;99743.53;7350686;19;20023;-62
2022/04/08 10:32:11;;;;;;;0.00;0.00;;;;;;;18.26;40.75;99745.66;7356165;19;20023;-64
2022/04/08 10:34:37;;;;;;;0.00;0.00;;;;;;;18.45;39.11;99752.28;7346763;19;20017;-65
2022/04/08 10:37:16;;;;;;;0.00;0.00;;;;;;;18.79;41.43;99754.25;7357259;19;20424;-64
2022/04/08 10:39:53;;;;;;;0.00;0.00;;;;;;;18.75;37.77;99747.47;7353974;19;20019;-65
2022/04/08 10:42:27;;;;;;;0.00;0.00;;;;;;;18.88;37.66;99758.88;7350769;19;20002;-64
2022/04/08 10:44:53;;;;;;;0.00;0.00;;;;;;;18.79;36.40;99759.53;7358071;19;20006;-65
2022/04/08 10:47:21;;;;;;;0.00;0.00;;;;;;;18.73;37.31;99752.03;7348318;19;20006;-66
2022/04/08 10:49:51;;;;;;;0.10;0.10;;;;;;;18.90;38.74;99741.09;7350063;19;20018;-66
2022/04/08 10:52:28;;;;;;;0.00;0.00;;;;;;;19.14;40.33;99753.50;7337538;19;20013;-66
2022/04/08 10:55:08;;;;;;;0.10;0.10;;;;;;;19.42;40.80;99768.19;7347147;19;20011;-66
2022/04/08 10:57:38;;;;;;;0.00;0.00;;;;;;;19.45;37.77;99774.09;7353263;19;20009;-66
2022/04/08 11:00:12;;;;;;;0.10;0.10;;;;;;;19.35;38.45;99773.06;7346057;19;20449;-66
2022/04/08 11:02:40;;;;;;;0.00;0.00;;;;;;;19.04;36.85;99778.94;7358412;19;20015;-65
2022/04/08 11:05:08;;;;;;;0.00;0.00;;;;;;;18.75;37.22;99792.44;7363845;19;20007;-66
2022/04/08 11:07:33;;;;;;;;;;;;;;;18.77;41.89;99792.34;7362454;19;20014;-66
2022/04/08 11:09:59;;;;;;;0.00;0.00;;;;;;;18.70;37.68;99791.91;7362920;19;19933;-66
2022/04/08 11:12:25;;;;;;;0.00;0.00;;;;;;;18.77;37.20;99787.06;7352100;19;20043;-66
2022/04/08 11:14:58;;;;;;;0.00;0.00;;;;;;;18.89;39.41;99792.31;7355136;19;20022;-65
2022/04/08 11:17:33;;;;;;;0.05;0.05;;;;;;;18.93;36.39;99791.13;7364369;19;20871;-66
2022/04/08 11:19:59;;;;;;;0.00;0.00;;;;;;;19.00;36.34;99788.03;7347764;19;20009;-66
2022/04/08 11:22:25;;;;;;;0.00;0.00;;;;;;;18.82;35.95;99777.84;7366828;19;20601;-65
2022/04/08 11:24:50;;;;;;;0.00;0.00;;;;;;;18.71;34.64;99791.00;7361735;19;20086;-66
2022/04/08 11:27:16;;;;;;;0.00;0.00;;;;;;;18.45;35.07;99797.22;7346136;19;20027;-65
2022/04/08 11:29:41;;;;;;;0.00;0.00;;;;;;;18.18;35.71;99789.41;7349044;19;20010;-66
2022/04/08 11:32:11;;;;;;;0.00;0.00;;;;;;;18.07;37.84;99793.63;7358725;19;21365;-66
2022/04/08 11:34:37;;;;;;;0.00;0.00;;;;;;;17.99;35.33;99793.28;7363121;19;20458;-65
2022/04/08 11:37:03;;;;;;;0.10;0.10;;;;;;;18.00;36.16;99794.16;7354169;19;20105;-64